Tiempo atmosférico en la estación meteorológica de Medina De Rioseco, Valladolid (731 m.)



Fecha
DESCASC
Temp. máxima en grados centígrados (hora)
DESCASC
Temp. mínima en grados centígrados (hora)
DESCASC
Temp. media en grados centígrados
DESCASC
Racha de viento máxima en m/sg (hora)
DESCASC
Velocidad máxima media en intervalos de 10 minutos(hora)
DESCASC
Precipitaciones diarias en mm
DESCASC
Precipitaciones de 00:00 a 06:00 en mm
DESCASC
Precipitaciones de 06:00 a 12:00 en mm
DESCASC
Precipitaciones de 12:00 a 18:00 en mm
DESCASC
Precipitaciones de 18:00 a 24:00 en mm
DESCASC
05-12-2019 10.4 (14:50) 2.1 (00:00) 6.2 12.22 (13:00) 6.67 (13:20) 0 0 0 0 0
04-12-2019 8.9 (16:50) -1.9 (08:30) 3.5 10.28 (22:00) 5.28 (22:00) 0 0 0 0 0
03-12-2019 5.9 (15:30) -0.7 (23:10) 2.6 10.56 (11:40) 6.39 (11:40) 0 0 0 0 0
02-12-2019 9 (13:30) 1.9 (00:00) 5.4 14.17 (14:20) 8.33 (15:00) 0.2 0.2 0 0 0
01-12-2019 6.9 (15:20) 4.3 (00:00) 5.6 8.06 (01:00) 4.44 (03:20) 6.2 1.8 1 3.4 0
30-11-2019 12.5 (11:00) 4.8 (00:00) 8.7 17.78 (12:00) 9.44 (11:40) 7.8 0.2 0.8 6.8 0
29-11-2019 14 (16:30) 9.3 (00:00) 11.7 8.61 (00:10) 5.56 (00:10) 3.6 0 0 0 3.6
28-11-2019 12.8 (16:00) 8.4 (00:00) 10.6 16.39 (14:40) 8.61 (14:20) 1.2 0 0 0 1.2
27-11-2019 10.6 (14:00) 6.7 (00:00) 8.7 12.78 (15:10) 8.61 (13:50) 0.8 0 0 0.8 0
26-11-2019 14.3 (15:10) 8.6 (00:00) 11.5 19.17 (16:50) 11.39 (16:50) 1.2 0 0.4 0.4 0.4
25-11-2019 13.4 (13:50) 8.4 (00:00) 10.9 11.39 (14:00) 7.78 (13:50) 0.2 0.2 0 0 0
24-11-2019 8.9 (22:00) 1.6 (00:00) 5.2 10.83 (22:10) 6.39 (13:20) 0.4 0 0 0 0.4
23-11-2019 10.5 (16:00) 2.2 (00:00) 6.4 16.67 (04:00) 9.72 (01:50) 0 0 0 0 0
22-11-2019 13 (15:30) 6.5 (00:00) 9.8 17.5 (14:00) 12.5 (14:00) 9 1.4 3.6 3.8 0.2
21-11-2019 10.3 (16:10) 3 (00:00) 6.7 9.44 (12:50) 6.39 (13:00) 0 0 0 0 0
20-11-2019 6.5 (14:50) 4.3 (04:30) 5.4 7.22 (13:10) 4.72 (23:10) 6.8 0 2.4 4.2 0.2
19-11-2019 7.4 (15:40) -2.3 (-00:0) 2.6 4.44 (14:00) 3.33 (14:10) 0 0 0 0 0
18-11-2019 9.9 (15:40) -3 (-00:0) 3.4 5 (20:50) 2.5 (13:10) 0 0 0 0 0
17-11-2019 10.5 (15:20) 1.4 (00:00) 5.9 11.11 (12:00) 7.22 (15:20) 4.4 0 2.2 2.2 0
16-11-2019 8.6 (15:30) -3 (-00:0) 2.8 10 (14:30) 6.39 (14:10) 0 0 0 0 0
15-11-2019 8.1 (14:10) 1.2 (00:00) 4.7 12.22 (11:50) 8.06 (11:50) 0 0 0 0 0
14-11-2019 7.4 (02:00) 1.5 (00:00) 4.5 16.39 (13:00) 10 (14:30) 3.4 1 0 2.4 0
13-11-2019 14 (15:40) 6.5 (00:00) 10.3 15.83 (01:00) 8.06 (23:00) 5.6 5.6 0 0 0
12-11-2019 10.4 (14:30) 0.4 (00:00) 5.4 11.94 (22:00) 7.5 (17:10) 2.6 0 0 0 2.6
11-11-2019 13.9 (15:00) 0.9 (23:59) 7.4 8.61 (15:20) 5.56 (15:20) 0 0 0 0 0
10-11-2019 8 (14:00) 0.2 (00:00) 4.1 12.5 (15:10) 7.78 (15:10) 0 0 0 0 0
09-11-2019 10 (16:30) 0.9 (00:00) 5.4 10.83 (12:50) 7.22 (12:40) 0.4 0 0.4 0 0
08-11-2019 10.8 (14:50) 0.2 (07:30) 5.5 14.44 (14:00) 9.44 (13:10) 0 0 0 0 0
07-11-2019 10.8 (13:20) 1.6 (00:00) 6.2 11.94 (14:30) 7.5 (14:40) 0.2 0 0 0.2 0
06-11-2019 12.2 (15:00) 2.7 (00:00) 7.4 10.28 (18:00) 6.39 (17:10) 0 0 0 0 0

Gráficas

Temp. máximas Temp. mínimas Temp. medias Precipitaciones Rachas de viento máximas Velocidades máximas media en intervalos de 10 minutos

Datos horarios

Fecha y hora oficial Temperatura (ºC) Velocidad del viento (km/h) Dirección del viento Racha (km/h) Dirección de racha Precipitación (mm) Presión (hPa) Tendencia (hPa) Humedad (%)
2019-12-05 23:00:00 4.6 10 Nordeste 31 Este 0 -- -- 86
2019-12-05 22:00:00 5.7 19 Este 37 Este 0 -- -- 84
2019-12-05 21:00:00 5.3 10 Nordeste 23 Este 0 -- -- 89
2019-12-05 20:00:00 5.7 9 Este 20 Nordeste 0 -- -- 88
2019-12-05 19:00:00 5.9 10 Nordeste 18 Este 0 -- -- 85
2019-12-05 18:00:00 7.7 10 Este 37 Este 0 -- -- 78
2019-12-05 17:00:00 9.2 20 Este 36 Este 0 -- -- 75
2019-12-05 16:00:00 10 19 Este 39 Este 0 -- -- 72
2019-12-05 15:00:00 10.4 20 Este 39 Este 0 -- -- 70
2019-12-05 14:00:00 9.9 21 Este 42 Este 0 -- -- 68
2019-12-05 13:00:00 9.1 22 Este 44 Este 0 -- -- 73
2019-12-05 12:00:00 7.3 20 Este 38 Este 0 -- -- 82
2019-12-05 11:00:00 7.2 19 Este 38 Este 0 -- -- 83
2019-12-05 10:00:00 6.5 14 Este 30 Este 0 -- -- 89
2019-12-05 09:00:00 5.5 12 Este 28 Este 0 -- -- 93
2019-12-05 08:00:00 3 8 Nordeste 13 Norte 0 -- -- 91
2019-12-05 07:00:00 2.5 2 Nordeste 19 Nordeste 0 -- -- 92
2019-12-05 06:00:00 2.4 3 Norte 10 Noroeste 0 -- -- 91
2019-12-05 05:00:00 3.7 6 Este 15 Nordeste 0 -- -- 91
2019-12-05 04:00:00 3.6 6 Nordeste 30 Este 0 -- -- 89
2019-12-05 03:00:00 4 7 Este 18 Este 0 -- -- 87
2019-12-05 02:00:00 5 12 Este 32 Este 0 -- -- 83
2019-12-05 01:00:00 4.7 20 Este 42 Este 0 -- -- 84
2019-12-05 00:00:00 2.1 5 Nordeste 26 Este 0 -- -- 88
2019-12-04 23:00:00 3.1 11 Nordeste 33 Nordeste 0 -- -- 83
2019-12-04 22:00:00 3.9 19 Este 37 Este 0 -- -- 78
2019-12-04 21:00:00 5 10 Nordeste 27 Este 0 -- -- 71
2019-12-04 20:00:00 5.6 4 Nordeste 32 Este 0 -- -- 77
2019-12-04 19:00:00 7.3 11 Este 26 Este 0 -- -- 75
2019-12-04 18:00:00 7.6 8 Nordeste 20 Este 0 -- -- 78
2019-12-04 17:00:00 8.9 5 Nordeste 13 Nordeste 0 -- -- 82
2019-12-04 16:00:00 8.7 7 Nordeste 18 Nordeste 0 -- -- 80
2019-12-04 15:00:00 8.4 9 Nordeste 17 Este 0 -- -- 79
2019-12-04 14:00:00 7 9 Este 19 Este 0 -- -- 81
2019-12-04 13:00:00 6 9 Nordeste 22 Este 0 -- -- 81
2019-12-04 12:00:00 4.4 11 Nordeste 18 Nordeste 0 -- -- 83
2019-12-04 11:00:00 2.8 9 Este 15 Este 0 -- -- 87
2019-12-04 10:00:00 0.5 7 Nordeste 12 Nordeste 0 -- -- 93
2019-12-04 09:00:00 -1.6 3 Este 9 Este 0 -- -- 93
2019-12-04 08:00:00 -1.6 4 Nordeste 12 Norte 0 -- -- 92
2019-12-04 07:00:00 -1.4 4 Norte 14 Este 0 -- -- 92
2019-12-04 06:00:00 -0.5 9 Nordeste 18 Nordeste 0 -- -- 92
2019-12-04 05:00:00 -0.6 9 Nordeste 19 Nordeste 0 -- -- 93
2019-12-04 04:00:00 -0.4 14 Nordeste 24 Nordeste 0 -- -- 92
2019-12-04 03:00:00 -0.1 10 Nordeste 18 Nordeste 0 -- -- 93
2019-12-04 02:00:00 -0.4 10 Nordeste 17 Nordeste 0 -- -- 92
2019-12-04 01:00:00 -0.2 9 Nordeste 23 Nordeste 0 -- -- 91
2019-12-04 00:00:00 0 5 Sudeste 21 Nordeste 0 -- -- 91
2019-12-03 23:00:00 -0.5 9 Nordeste 18 Nordeste 0 -- -- 91
2019-12-03 22:00:00 0.2 12 Nordeste 22 Nordeste 0 -- -- 88
2019-12-03 21:00:00 0.6 6 Nordeste 18 Este 0 -- -- 86
2019-12-03 20:00:00 1.4 10 Nordeste 20 Nordeste 0 -- -- 85
2019-12-03 19:00:00 2.4 12 Este 21 Este 0 -- -- 83
2019-12-03 18:00:00 3.3 9 Este 24 Este 0 -- -- 79
2019-12-03 17:00:00 4.6 11 Este 24 Este 0 -- -- 75
2019-12-03 16:00:00 4.8 14 Este 28 Este 0 -- -- 72
2019-12-03 15:00:00 5.5 15 Este 30 Este 0 -- -- 71
2019-12-03 14:00:00 5.3 17 Este 30 Este 0 -- -- 71
2019-12-03 13:00:00 4.9 17 Este 35 Este 0 -- -- 76
2019-12-03 12:00:00 4.4 21 Este 38 Este 0 -- -- 77
2019-12-03 11:00:00 3.7 19 Este 38 Este 0 -- -- 82
2019-12-03 10:00:00 2.9 13 Este 28 Este 0 -- -- 86
2019-12-03 09:00:00 2 12 Este 26 Este 0 -- -- 88
2019-12-03 08:00:00 2.2 14 Este 29 Este 0 -- -- 87
2019-12-03 07:00:00 2.2 15 Este 30 Este 0 -- -- 86
2019-12-03 06:00:00 2.3 17 Este 32 Este 0 -- -- 85
2019-12-03 05:00:00 2.2 17 Este 30 Este 0 -- -- 85
2019-12-03 04:00:00 1.6 17 Este 28 Este 0 -- -- 86
2019-12-03 03:00:00 1 10 Este 30 Este 0 -- -- 88
2019-12-03 02:00:00 1.3 11 Este 22 Este 0 -- -- 89
2019-12-03 01:00:00 1.6 9 Este 29 Este 0 -- -- 87
2019-12-03 00:00:00 1.9 12 Este 29 Nordeste 0 -- -- 86
2019-12-02 23:00:00 2 14 Este 35 Este 0 -- -- 84
2019-12-02 22:00:00 2.3 21 Este 41 Este 0 -- -- 79
2019-12-02 21:00:00 3 24 Este 44 Este 0 -- -- 76
2019-12-02 20:00:00 3.4 19 Este 41 Este 0 -- -- 77
2019-12-02 19:00:00 4.4 21 Este 49 Nordeste 0 -- -- 77
2019-12-02 18:00:00 5.6 26 Este 50 Nordeste 0 -- -- 76
2019-12-02 17:00:00 7.4 24 Este 46 Nordeste 0 -- -- 73
2019-12-02 16:00:00 8.2 26 Este 50 Este 0 -- -- 71
2019-12-02 15:00:00 8.2 30 Este 51 Este 0 -- -- 72
2019-12-02 14:00:00 8.6 23 Este 49 Este 0 -- -- 72
2019-12-02 13:00:00 8 28 Este 49 Este 0 -- -- 76
2019-12-02 12:00:00 7.6 27 Este 45 Este 0 -- -- 78
2019-12-02 11:00:00 6.8 22 Este 40 Nordeste 0 -- -- 86
2019-12-02 10:00:00 5.4 14 Este 26 Este 0 -- -- 92
2019-12-02 09:00:00 4.2 14 Este 30 Este 0 -- -- 91
2019-12-02 08:00:00 3.4 11 Este 26 Este 0 -- -- 92
2019-12-02 07:00:00 3.6 14 Este 26 Este 0 -- -- 92
2019-12-02 06:00:00 2.7 8 Nordeste 24 Este 0 -- -- 92
2019-12-02 05:00:00 2.4 8 Nordeste 14 Este 0 -- -- 93
2019-12-02 04:00:00 3 10 Este 26 Este 0 -- -- 92
2019-12-02 03:00:00 3.5 12 Este 30 Nordeste 0 -- -- 90
2019-12-02 02:00:00 4 14 Este 29 Este 0 -- -- 92
2019-12-02 01:00:00 4.3 9 Nordeste 20 Este 0.2 -- -- 92
2019-12-02 00:00:00 5.1 13 Nordeste 29 Nordeste 0 -- -- 91
2019-12-01 23:00:00 5.4 11 Este 22 Este 0 -- -- 91
2019-12-01 22:00:00 4.5 8 Nordeste 12 Nordeste 0 -- -- 94
2019-12-01 21:00:00 4.7 6 Nordeste 13 Este 0 -- -- 94
2019-12-01 20:00:00 4.9 5 Nordeste 10 Nordeste 0 -- -- 94
2019-12-01 19:00:00 5.4 5 Nordeste 9 Nordeste 0 -- -- 93
2019-12-01 18:00:00 5.9 4 Este 16 Nordeste 0 -- -- 91
2019-12-01 17:00:00 6.6 8 Este 21 Este 0 -- -- 90
2019-12-01 16:00:00 6.8 12 Este 21 Este 0.6 -- -- 90
2019-12-01 15:00:00 6.7 8 Sudeste 17 Sudeste 0.8 -- -- 93
2019-12-01 14:00:00 6.3 10 Sudeste 21 Sudeste 1.2 -- -- 93
2019-12-01 13:00:00 6.1 11 Sudeste 21 Sudeste 0.8 -- -- 94
2019-12-01 12:00:00 6 11 Sudeste 22 Sur 0.4 -- -- 94
2019-12-01 11:00:00 5.9 11 Sudeste 25 Sudeste 0.2 -- -- 94
2019-12-01 10:00:00 5.9 13 Sur 23 Sur 0 -- -- 94
2019-12-01 09:00:00 5.8 13 Sur 22 Sur 0 -- -- 93
2019-12-01 08:00:00 5.6 12 Sur 26 Sur 0.2 -- -- 92
2019-12-01 07:00:00 5.5 15 Sur 29 Sudeste 0.2 -- -- 92
2019-12-01 06:00:00 5.7 10 Sur 26 Sudoeste 0.6 -- -- 90
2019-12-01 05:00:00 6 12 Sudoeste 24 Sudoeste 1 -- -- 91
2019-12-01 04:00:00 6.2 15 Sudoeste 29 Sudoeste 0.2 -- -- 91
2019-12-01 03:00:00 6 14 Sudoeste 26 Sudoeste 0 -- -- 91
2019-12-01 02:00:00 5.7 10 Sudoeste 24 Sudoeste 0 -- -- 91
2019-12-01 01:00:00 5.9 12 Sudoeste 29 Sur 0 -- -- 92
2019-12-01 00:00:00 4.8 9 Sudoeste 19 Sudoeste 0 -- -- 91
2019-11-30 23:00:00 4.9 5 Sudoeste 20 Sudoeste 0 -- -- 91
2019-11-30 22:00:00 5.1 9 Sudoeste 17 Sudoeste 0 -- -- 91
2019-11-30 21:00:00 5.8 7 Oeste 25 Sudoeste 0 -- -- 90
2019-11-30 20:00:00 6.2 9 Oeste 25 Sudoeste 0 -- -- 90
2019-11-30 19:00:00 6.9 17 Oeste 28 Oeste 0 -- -- 89
2019-11-30 18:00:00 8.2 20 Oeste 35 Oeste 0 -- -- 84
2019-11-30 17:00:00 9.4 21 Oeste 33 Oeste 0.2 -- -- 88
2019-11-30 16:00:00 9.7 13 Oeste 32 Noroeste 0.4 -- -- 90
2019-11-30 15:00:00 10.2 22 Oeste 42 Oeste 0.8 -- -- 92
2019-11-30 14:00:00 11.3 27 Oeste 44 Oeste 1.2 -- -- 88
2019-11-30 13:00:00 11.4 23 Oeste 48 Sudoeste 4.2 -- -- 92
2019-11-30 12:00:00 12.1 31 Sudoeste 64 Sudoeste 0.6 -- -- 92
2019-11-30 11:00:00 12.5 32 Sudoeste 52 Sudoeste 0 -- -- 90
2019-11-30 10:00:00 12 26 Sudoeste 43 Sudoeste 0 -- -- 90
2019-11-30 09:00:00 11.6 24 Sudoeste 39 Sudoeste 0.2 -- -- 91
2019-11-30 08:00:00 11.6 24 Sudoeste 37 Sudoeste 0 -- -- 90
2019-11-30 07:00:00 11.5 21 Sudoeste 31 Sudoeste 0 -- -- 90
2019-11-30 06:00:00 11.4 15 Sudoeste 34 Sudoeste 0 -- -- 91
2019-11-30 05:00:00 11.5 25 Sudoeste 37 Sudoeste 0 -- -- 92
2019-11-30 04:00:00 12 16 Sudoeste 33 Sudoeste 0 -- -- 91
2019-11-30 03:00:00 11.9 19 Oeste 38 Sudoeste 0 -- -- 93
2019-11-30 02:00:00 12 20 Sudoeste 31 Sudoeste 0 -- -- 94
2019-11-30 01:00:00 11.8 18 Oeste 29 Oeste 0.2 -- -- 95
2019-11-30 00:00:00 11.2 6 Sudoeste 12 Sudoeste 2.4 -- -- 95
2019-11-29 23:00:00 11.2 6 Oeste 11 Oeste 1.2 -- -- 94
2019-11-29 22:00:00 10.9 5 Sudoeste 10 Sudoeste 0 -- -- 94
2019-11-29 21:00:00 9.9 2 Sudoeste 6 Oeste 0 -- -- 93
2019-11-29 20:00:00 9.8 3 Oeste 8 Sudoeste 0 -- -- 92
2019-11-29 19:00:00 9.6 3 Sur 8 Sudoeste 0 -- -- 89
2019-11-29 18:00:00 11.9 6 Sudoeste 14 Oeste 0 -- -- 84
2019-11-29 17:00:00 13.7 9 Oeste 16 Oeste 0 -- -- 77
2019-11-29 16:00:00 13.5 9 Noroeste 18 Noroeste 0 -- -- 80
2019-11-29 15:00:00 13.2 12 Oeste 19 Oeste 0 -- -- 82
2019-11-29 14:00:00 13.8 14 Oeste 22 Oeste 0 -- -- 81
2019-11-29 13:00:00 12.8 12 Noroeste 18 Oeste 0 -- -- 92
2019-11-29 12:00:00 11.4 8 Sudoeste 11 Sudoeste 0 -- -- 97
2019-11-29 11:00:00 10.6 4 Noroeste 10 Sudoeste 0 -- -- 97
2019-11-29 10:00:00 10 5 Sudoeste 8 Sudoeste 0 -- -- 97
2019-11-29 09:00:00 9.4 0 Calma 5 Oeste 0 -- -- 97
2019-11-29 08:00:00 9.9 0 Calma 8 Oeste 0 -- -- 97
2019-11-29 07:00:00 10.4 8 Oeste 14 Oeste 0 -- -- 97
2019-11-29 06:00:00 10.3 5 Sudoeste 11 Oeste 0 -- -- 96
2019-11-29 05:00:00 10.6 8 Oeste 13 Oeste 0 -- -- 96
2019-11-29 04:00:00 10.6 6 Oeste 13 Oeste 0 -- -- 96
2019-11-29 03:00:00 10.7 8 Oeste 20 Oeste 0 -- -- 96
2019-11-29 02:00:00 10.7 12 Oeste 22 Oeste 0 -- -- 95
2019-11-29 01:00:00 10.7 12 Oeste 31 Oeste 0 -- -- 95
2019-11-29 00:00:00 10.6 21 Oeste 35 Oeste 0 -- -- 94
2019-11-28 23:00:00 10.7 21 Oeste 40 Oeste 0 -- -- 94
2019-11-28 22:00:00 10.7 22 Oeste 40 Sudoeste 0.6 -- -- 92
2019-11-28 21:00:00 10.7 26 Oeste 42 Sudoeste 0.4 -- -- 90
2019-11-28 20:00:00 11.1 27 Oeste 50 Oeste 0.2 -- -- 86
2019-11-28 19:00:00 11.3 21 Oeste 41 Sudoeste 0 -- -- 85
2019-11-28 18:00:00 11.1 18 Oeste 46 Oeste 0 -- -- 88
2019-11-28 17:00:00 12.1 22 Oeste 44 Oeste 0 -- -- 80
2019-11-28 16:00:00 12.8 28 Sudoeste 46 Oeste 0 -- -- 77
2019-11-28 15:00:00 11.8 28 Sudoeste 59 Oeste 0 -- -- 83
2019-11-28 14:00:00 11.8 30 Oeste 41 Sudoeste 0 -- -- 82
2019-11-28 13:00:00 11.4 26 Oeste 49 Oeste 0 -- -- 86
2019-11-28 12:00:00 11.3 27 Oeste 47 Oeste 0 -- -- 86
2019-11-28 11:00:00 10.7 27 Oeste 40 Oeste 0 -- -- 87
2019-11-28 10:00:00 10 22 Oeste 34 Oeste 0 -- -- 92
2019-11-28 09:00:00 9.5 21 Oeste 36 Oeste 0 -- -- 93
2019-11-28 08:00:00 9.7 23 Oeste 42 Sudoeste 0 -- -- 91
2019-11-28 07:00:00 9.4 29 Sudoeste 46 Sudoeste 0 -- -- 91
2019-11-28 06:00:00 9.3 25 Sudoeste 41 Sudoeste 0 -- -- 91
2019-11-28 05:00:00 9.1 23 Sudoeste 41 Oeste 0 -- -- 92
2019-11-28 04:00:00 9 23 Oeste 44 Sudoeste 0 -- -- 92
2019-11-28 03:00:00 9.3 25 Oeste 44 Oeste 0 -- -- 90
2019-11-28 02:00:00 9.3 27 Oeste 44 Oeste 0 -- -- 90
2019-11-28 01:00:00 8.9 23 Oeste 44 Oeste 0 -- -- 90
2019-11-28 00:00:00 8.4 19 Oeste 41 Oeste 0 -- -- 91
2019-11-27 23:00:00 8.6 20 Oeste 37 Oeste 0 -- -- 91
2019-11-27 22:00:00 8.7 23 Oeste 35 Oeste 0 -- -- 92
2019-11-27 21:00:00 8.8 19 Oeste 34 Sudoeste 0 -- -- 88
2019-11-27 20:00:00 9.2 22 Oeste 41 Oeste 0 -- -- 84
2019-11-27 19:00:00 9.6 13 Oeste 37 Oeste 0 -- -- 85
2019-11-27 18:00:00 9.8 19 Oeste 33 Oeste 0 -- -- 86
2019-11-27 17:00:00 10 16 Oeste 33 Oeste 0.6 -- -- 89
2019-11-27 16:00:00 9.7 24 Oeste 46 Oeste 0.2 -- -- 87
2019-11-27 15:00:00 10.4 28 Oeste 46 Oeste 0 -- -- 82
2019-11-27 14:00:00 10.6 28 Oeste 46 Oeste 0 -- -- 81
2019-11-27 06:00:00 -- -- -- -- -- -- -- -- --
2019-11-27 05:00:00 7.1 18 Oeste 37 Oeste 0 -- -- 88
2019-11-27 04:00:00 6.8 14 Sudoeste 35 Oeste 0 -- -- 91
2019-11-27 03:00:00 7.4 23 Oeste 37 Oeste 0 -- -- 86
2019-11-27 02:00:00 8.5 20 Oeste 34 Oeste 0 -- -- 89
2019-11-27 01:00:00 8.3 23 Oeste 38 Oeste 0 -- -- 88
2019-11-27 00:00:00 8.6 22 Oeste 41 Oeste 0 -- -- 91
2019-11-26 23:00:00 9.5 23 Oeste 42 Oeste 0 -- -- 88
2019-11-26 22:00:00 10 22 Oeste 40 Oeste 0.2 -- -- 91
2019-11-26 21:00:00 10.6 28 Oeste 57 Oeste 0.2 -- -- 86
2019-11-26 20:00:00 12.1 31 Oeste 51 Oeste 0 -- -- 79
2019-11-26 19:00:00 11.8 27 Oeste 46 Oeste 0 -- -- 80
2019-11-26 18:00:00 13 25 Oeste 50 Sudoeste 0 -- -- 82
2019-11-26 17:00:00 14.2 35 Oeste 69 Sudoeste 0 -- -- 83
2019-11-26 16:00:00 13.7 26 Sudoeste 51 Sudoeste 0.2 -- -- 87
2019-11-26 15:00:00 14.1 27 Sudoeste 43 Sudoeste 0.2 -- -- 86
2019-11-26 14:00:00 13.7 26 Sudoeste 49 Sudoeste 0 -- -- 89
2019-11-26 13:00:00 13.2 24 Sudoeste 44 Sudoeste 0 -- -- 89
2019-11-26 12:00:00 13.2 28 Sudoeste 44 Sudoeste 0 -- -- 88
2019-11-26 11:00:00 12.3 15 Sudoeste 37 Sudoeste 0 -- -- 88
2019-11-26 10:00:00 11.7 22 Sudoeste 33 Sudoeste 0 -- -- 91
2019-11-26 09:00:00 11.1 19 Sudoeste 36 Sudoeste 0.4 -- -- 93
2019-11-26 08:00:00 11 18 Sudoeste 31 Sudoeste 0 -- -- 92
2019-11-26 07:00:00 10.4 12 Sudoeste 27 Sudoeste 0 -- -- 91
2019-11-26 06:00:00 10.2 10 Sudoeste 19 Sur 0 -- -- 89
2019-11-26 05:00:00 9.8 10 Sudoeste 25 Oeste 0 -- -- 91
2019-11-26 04:00:00 10 10 Sudoeste 26 Sudoeste 0 -- -- 88
2019-11-26 03:00:00 9.8 17 Sudoeste 27 Oeste 0 -- -- 89
2019-11-26 02:00:00 9.6 15 Sudoeste 25 Sudoeste 0 -- -- 92
2019-11-26 01:00:00 9.4 10 Sudoeste 20 Sudoeste 0 -- -- 91
2019-11-26 00:00:00 9.1 13 Sudoeste 18 Sudoeste 0 -- -- 91
2019-11-25 23:00:00 9.1 12 Sudoeste 23 Sudoeste 0 -- -- 89
2019-11-25 22:00:00 9 11 Sudoeste 23 Oeste 0 -- -- 87
2019-11-25 21:00:00 9.6 15 Sudoeste 27 Sudoeste 0 -- -- 86
2019-11-25 20:00:00 9.7 17 Oeste 27 Oeste 0 -- -- 86
2019-11-25 19:00:00 9.8 11 Oeste 19 Sudoeste 0 -- -- 87
2019-11-25 18:00:00 10.9 10 Oeste 22 Sudoeste 0 -- -- 83
2019-11-25 17:00:00 11.9 15 Oeste 33 Noroeste 0 -- -- 80
2019-11-25 16:00:00 12.6 21 Oeste 36 Oeste 0 -- -- 75
2019-11-25 15:00:00 13.2 23 Oeste 35 Oeste 0 -- -- 73
2019-11-25 14:00:00 13.2 26 Oeste 41 Oeste 0 -- -- 78
2019-11-25 13:00:00 12.8 24 Oeste 34 Oeste 0 -- -- 83
2019-11-25 12:00:00 11.9 19 Oeste 33 Oeste 0 -- -- 88
2019-11-25 11:00:00 11.6 20 Oeste 35 Oeste 0 -- -- 90
2019-11-25 10:00:00 10.8 20 Oeste 31 Oeste 0 -- -- 91
2019-11-25 09:00:00 10.3 21 Oeste 39 Sudoeste 0 -- -- 92
2019-11-25 08:00:00 9.9 20 Oeste 32 Sudoeste 0 -- -- 93
2019-11-25 07:00:00 9.7 19 Oeste 28 Oeste 0 -- -- 93
2019-11-25 06:00:00 9.6 18 Oeste 30 Sudoeste 0 -- -- 93
2019-11-25 05:00:00 9.6 18 Sudoeste 35 Oeste 0 -- -- 92
2019-11-25 04:00:00 9.8 17 Sudoeste 33 Sudoeste 0 -- -- 95
2019-11-25 03:00:00 9.5 17 Sudoeste 36 Oeste 0 -- -- 95
2019-11-25 02:00:00 9.6 24 Sudoeste 37 Oeste 0 -- -- 95
2019-11-25 01:00:00 9.2 20 Oeste 30 Oeste 0.2 -- -- 95
2019-11-25 00:00:00 8.4 13 Sudoeste 28 Sudoeste 0.2 -- -- 93
2019-11-24 23:00:00 8.5 18 Sudoeste 39 Sudoeste 0 -- -- 91
2019-11-24 22:00:00 8.9 19 Sudoeste 35 Sudoeste 0.2 -- -- 89
2019-11-24 21:00:00 8.6 12 Sudoeste 36 Sudoeste 0 -- -- 88
2019-11-24 20:00:00 8.1 12 Sudoeste 27 Sudoeste 0 -- -- 90
2019-11-24 19:00:00 8.1 9 Sudoeste 33 Sudoeste 0 -- -- 89
2019-11-24 18:00:00 8.2 13 Sudoeste 20 Sudoeste 0 -- -- 85
2019-11-24 17:00:00 8.3 15 Sudoeste 28 Oeste 0 -- -- 84
2019-11-24 16:00:00 8.6 20 Oeste 32 Oeste 0 -- -- 80
2019-11-24 15:00:00 8.6 19 Oeste 33 Oeste 0 -- -- 80
2019-11-24 14:00:00 8 19 Oeste 32 Oeste 0 -- -- 83
2019-11-24 13:00:00 6.9 18 Oeste 29 Oeste 0 -- -- 87
2019-11-24 12:00:00 6.5 19 Oeste 29 Oeste 0 -- -- 92
2019-11-24 11:00:00 5.3 15 Oeste 23 Sudoeste 0 -- -- 95
2019-11-24 10:00:00 3.7 10 Oeste 18 Oeste 0 -- -- 96
2019-11-24 09:00:00 2.4 6 Sudoeste 15 Sudoeste 0 -- -- 95
2019-11-24 08:00:00 1.8 5 Sudoeste 17 Oeste 0 -- -- 94
2019-11-24 07:00:00 2.3 11 Oeste 19 Oeste 0 -- -- 95
2019-11-24 06:00:00 1.7 7 Oeste 13 Sudoeste 0 -- -- 95
2019-11-24 05:00:00 2.4 11 Oeste 19 Oeste 0 -- -- 94
2019-11-24 04:00:00 2.7 15 Oeste 24 Oeste 0 -- -- 94
2019-11-24 03:00:00 1.7 6 Sudoeste 17 Oeste 0 -- -- 94
2019-11-24 02:00:00 1.8 6 Oeste 11 Oeste 0 -- -- 93
2019-11-24 01:00:00 2.7 9 Oeste 16 Oeste 0 -- -- 92
2019-11-24 00:00:00 2.7 9 Oeste 14 Oeste 0 -- -- 92
2019-11-23 23:00:00 2.5 3 Sudoeste 15 Oeste 0 -- -- 88
2019-11-23 22:00:00 3.9 12 Oeste 17 Oeste 0 -- -- 87
2019-11-23 21:00:00 4.6 5 Noroeste 18 Oeste 0 -- -- 81
2019-11-23 20:00:00 6.3 3 Noroeste 13 Oeste 0 -- -- 75
2019-11-23 19:00:00 6.5 9 Norte 16 Noroeste 0 -- -- 75
2019-11-23 18:00:00 7.2 8 Noroeste 32 Noroeste 0 -- -- 74
2019-11-23 17:00:00 9.6 22 Noroeste 36 Noroeste 0 -- -- 63
2019-11-23 16:00:00 10.5 26 Noroeste 42 Noroeste 0 -- -- 61
2019-11-23 15:00:00 10.2 28 Noroeste 49 Noroeste 0 -- -- 61
2019-11-23 14:00:00 10.2 33 Noroeste 50 Noroeste 0 -- -- 61
2019-11-23 13:00:00 9.8 35 Noroeste 51 Noroeste 0 -- -- 61
2019-11-23 12:00:00 8.8 22 Oeste 35 Oeste 0 -- -- 72
2019-11-23 11:00:00 6.7 24 Oeste 44 Oeste 0 -- -- 81
2019-11-23 10:00:00 5 17 Oeste 25 Oeste 0 -- -- 84
2019-11-23 09:00:00 3 10 Oeste 21 Oeste 0 -- -- 88
2019-11-23 08:00:00 3.2 12 Sudoeste 28 Oeste 0 -- -- 85
2019-11-23 07:00:00 3.6 19 Oeste 29 Oeste 0 -- -- 86
2019-11-23 06:00:00 4.1 17 Oeste 36 Oeste 0 -- -- 88
2019-11-23 05:00:00 4.7 22 Oeste 44 Oeste 0 -- -- 87
2019-11-23 04:00:00 5.1 32 Oeste 60 Oeste 0 -- -- 85
2019-11-23 03:00:00 5.6 33 Oeste 58 Oeste 0 -- -- 83
2019-11-23 02:00:00 5.9 32 Oeste 54 Oeste 0 -- -- 82
2019-11-23 01:00:00 6.2 31 Oeste 54 Oeste 0 -- -- 86
2019-11-23 00:00:00 7 31 Oeste 47 Oeste 0 -- -- 86
2019-11-22 23:00:00 7.6 25 Oeste 49 Sudoeste 0 -- -- 89
2019-11-22 22:00:00 8 31 Oeste 62 Oeste 0.2 -- -- 89
2019-11-22 21:00:00 8 30 Oeste 47 Sudoeste 0 -- -- 87
2019-11-22 20:00:00 7.8 24 Sudoeste 38 Sudoeste 0 -- -- 87
2019-11-22 19:00:00 7.6 20 Oeste 39 Oeste 0 -- -- 87
2019-11-22 18:00:00 8.4 27 Oeste 59 Oeste 0.2 -- -- 83
2019-11-22 17:00:00 10.2 28 Oeste 59 Oeste 1.4 -- -- 85
2019-11-22 16:00:00 12.1 35 Oeste 54 Oeste 0 -- -- 76
2019-11-22 15:00:00 12.1 29 Oeste 58 Oeste 0 -- -- 87
2019-11-22 14:00:00 12.1 45 Sudoeste 63 Sudoeste 0.4 -- -- 88
2019-11-22 13:00:00 11 30 Sudoeste 59 Sur 1.8 -- -- 90
2019-11-22 12:00:00 10.6 29 Sudoeste 51 Sur 0.2 -- -- 85
2019-11-22 11:00:00 9.2 27 Sur 52 Sur 0 -- -- 85
2019-11-22 10:00:00 7.4 23 Sur 48 Sur 0 -- -- 92
2019-11-22 09:00:00 7.2 27 Sur 49 Sur 0.4 -- -- 91
2019-11-22 08:00:00 7.1 23 Sur 41 Sur 1.8 -- -- 92
2019-11-22 07:00:00 7 18 Sudoeste 36 Sudoeste 1.2 -- -- 92
2019-11-22 06:00:00 7 17 Sur 30 Sudoeste 0.8 -- -- 92
2019-11-22 05:00:00 6.6 13 Sur 25 Sur 0.4 -- -- 92
2019-11-22 04:00:00 6.8 13 Sur 26 Sur 0.2 -- -- 91
2019-11-22 03:00:00 6.6 11 Sudoeste 26 Sudoeste 0 -- -- 90
2019-11-22 02:00:00 6.6 12 Sudoeste 22 Sur 0 -- -- 90
2019-11-22 01:00:00 6.5 7 Sudoeste 23 Sudoeste 0 -- -- 90
2019-11-22 00:00:00 6.6 11 Sudoeste 21 Sudoeste 0 -- -- 86
2019-11-21 23:00:00 5.9 6 Sur 15 Sur 0 -- -- 87
2019-11-21 22:00:00 4.4 2 Oeste 9 Sudoeste 0 -- -- 89
2019-11-21 21:00:00 3.4 5 Sur 9 Sur 0 -- -- 90
2019-11-21 20:00:00 3.8 0 Calma 6 Oeste 0 -- -- 83
2019-11-21 19:00:00 6.1 5 Sudoeste 13 Sudoeste 0 -- -- 81
2019-11-21 18:00:00 8.1 10 Sudoeste 25 Oeste 0 -- -- 73
2019-11-21 17:00:00 9.2 13 Oeste 24 Oeste 0 -- -- 71
2019-11-21 16:00:00 10.1 19 Oeste 30 Oeste 0 -- -- 64
2019-11-21 15:00:00 8.6 12 Oeste 26 Oeste 0 -- -- 73
2019-11-21 14:00:00 8.4 13 Oeste 31 Oeste 0 -- -- 73
2019-11-21 13:00:00 9 23 Oeste 34 Oeste 0 -- -- 70
2019-11-21 12:00:00 8 15 Oeste 27 Oeste 0 -- -- 82
2019-11-21 11:00:00 7.4 18 Oeste 30 Oeste 0 -- -- 92
2019-11-21 10:00:00 5.9 12 Oeste 22 Sudoeste 0 -- -- 93
2019-11-21 09:00:00 5.6 11 Oeste 20 Sudoeste 0 -- -- 93
2019-11-21 08:00:00 -- -- -- -- -- -- -- -- --
2019-11-21 07:00:00 -- -- -- -- -- -- -- -- --
2019-11-21 06:00:00 -- -- -- -- -- -- -- -- --
2019-11-21 05:00:00 -- -- -- -- -- -- -- -- --
2019-11-21 04:00:00 -- -- -- -- -- -- -- -- --
2019-11-21 03:00:00 -- -- -- -- -- -- -- -- --
2019-11-21 02:00:00 -- -- -- -- -- -- -- -- --
2019-11-21 01:00:00 -- -- -- -- -- -- -- -- --
2019-11-21 00:00:00 -- -- -- -- -- -- -- -- --
2019-11-20 23:00:00 -- -- -- -- -- -- -- -- --
2019-11-20 22:00:00 -- -- -- -- -- -- -- -- --
2019-11-20 21:00:00 -- -- -- -- -- -- -- -- --
2019-11-20 20:00:00 -- -- -- -- -- -- -- -- --
2019-11-20 19:00:00 6.2 5 Sudoeste 20 Sur 0 -- -- 91
2019-11-20 18:00:00 6.3 10 Sudoeste 18 Sudoeste 0 -- -- 91
2019-11-20 17:00:00 5.9 5 Sudoeste 20 Sudoeste 0.2 -- -- 91
2019-11-20 16:00:00 6.2 8 Sudoeste 25 Sudoeste 0.8 -- -- 90
2019-11-20 15:00:00 6.5 14 Sudoeste 21 Sudoeste 0 -- -- 91
2019-11-20 14:00:00 6 11 Sudoeste 26 Oeste 2.2 -- -- 92
2019-11-20 13:00:00 6.4 15 Sudoeste 23 Sudoeste 1 -- -- 92
2019-11-20 12:00:00 6.1 12 Sudoeste 22 Sudoeste 1.4 -- -- 92
2019-11-20 11:00:00 5.6 10 Sudoeste 23 Sur 0.2 -- -- 93
2019-11-20 10:00:00 5.1 14 Sur 24 Sur 0.6 -- -- 93
2019-11-20 09:00:00 4.9 7 Sudoeste 16 Sur 0.2 -- -- 92
2019-11-20 08:00:00 4.8 5 Sur 12 Sur 0 -- -- 90
2019-11-20 07:00:00 4.7 6 Sur 9 Sur 0 -- -- 90
2019-11-20 06:00:00 4.7 3 Sudeste 5 Sudeste 0 -- -- 90
2019-11-20 05:00:00 4.4 0 Calma 12 Sudeste 0 -- -- 89
2019-11-20 04:00:00 4.8 7 Sudeste 15 Sur 0 -- -- 88
2019-11-20 03:00:00 4.8 0 Calma 6 Sur 0 -- -- 88
2019-11-20 02:00:00 4.8 3 Sudoeste 8 Sudeste 0 -- -- 86
2019-11-20 01:00:00 5.3 6 Sur 10 Sur 0 -- -- 82
2019-11-20 00:00:00 5.4 6 Sur 10 Sudeste 0 -- -- 84
2019-11-19 23:00:00 5.2 4 Sudeste 11 Sudeste 0 -- -- 86
2019-11-19 22:00:00 5.5 2 Sur 6 Sudoeste 0 -- -- 83
2019-11-19 21:00:00 5.6 4 Sur 9 Sur 0 -- -- 85
2019-11-19 20:00:00 5.5 4 Sudeste 9 Sur 0 -- -- 86
2019-11-19 19:00:00 4.8 0 Calma 5 Sur 0 -- -- 86
2019-11-19 18:00:00 5.8 3 Sur 7 Oeste 0 -- -- 83
2019-11-19 17:00:00 7 4 Sudoeste 13 Oeste 0 -- -- 78
2019-11-19 16:00:00 7.4 8 Oeste 15 Oeste 0 -- -- 77
2019-11-19 15:00:00 7.2 9 Oeste 16 Oeste 0 -- -- 80
2019-11-19 14:00:00 7.1 10 Oeste 16 Oeste 0 -- -- 76
2019-11-19 13:00:00 6 5 Oeste 9 Oeste 0 -- -- 83
2019-11-19 12:00:00 4.1 5 Oeste 8 Noroeste 0 -- -- 92
2019-11-19 11:00:00 1.1 3 Este 6 Nordeste 0 -- -- 95
2019-11-19 10:00:00 -0.8 0 Calma 8 Este 0 -- -- 95
2019-11-19 09:00:00 -2 3 Este 6 Este 0 -- -- 94
2019-11-19 08:00:00 -2.2 5 Nordeste 8 Nordeste 0 -- -- 94
2019-11-19 07:00:00 -1.9 4 Nordeste 9 Nordeste 0 -- -- 94
2019-11-19 06:00:00 -2 2 Nordeste 6 Este 0 -- -- 93
2019-11-19 05:00:00 -1.8 5 Este 10 Nordeste 0 -- -- 93
2019-11-19 04:00:00 -1.3 4 Nordeste 9 Nordeste 0 -- -- 92
2019-11-19 03:00:00 -0.8 6 Nordeste 11 Nordeste 0 -- -- 92
2019-11-19 02:00:00 -0.4 0 Calma 6 Noroeste 0 -- -- 92
2019-11-19 01:00:00 0.1 0 Calma 9 Nordeste 0 -- -- 91
2019-11-19 00:00:00 0.1 2 Nordeste 8 Sur 0 -- -- 91
2019-11-18 23:00:00 1.2 3 Nordeste 10 Nordeste 0 -- -- 90
2019-11-18 22:00:00 2.5 7 Nordeste 11 Nordeste 0 -- -- 86
2019-11-18 21:00:00 4.7 6 Sudeste 18 Sudeste 0 -- -- 82
2019-11-18 20:00:00 4.4 7 Sudeste 13 Nordeste 0 -- -- 83
2019-11-18 19:00:00 5.6 2 Noroeste 9 Sur 0 -- -- 79
2019-11-18 18:00:00 7.3 6 Sur 9 Sur 0 -- -- 75
2019-11-18 17:00:00 8.9 4 Norte 10 Noroeste 0 -- -- 63
2019-11-18 16:00:00 9.5 8 Noroeste 13 Noroeste 0 -- -- 64
2019-11-18 15:00:00 9.4 5 Nordeste 14 Nordeste 0 -- -- 63
2019-11-18 14:00:00 8.7 6 Norte 17 Noroeste 0 -- -- 67
2019-11-18 13:00:00 8.1 8 Norte 17 Norte 0 -- -- 72
2019-11-18 12:00:00 6.4 5 Nordeste 12 Nordeste 0 -- -- 79
2019-11-18 11:00:00 4.1 3 Oeste 7 Noroeste 0 -- -- 93
2019-11-18 10:00:00 1.2 0 Calma 6 Noroeste 0 -- -- 96
2019-11-18 09:00:00 -2.5 0 Calma 5 Este 0 -- -- 95
2019-11-18 08:00:00 -2.8 3 Oeste 5 Sudeste 0 -- -- 94
2019-11-18 07:00:00 -2.5 0 Calma 5 Noroeste 0 -- -- 94
2019-11-18 06:00:00 -2.2 0 Calma 7 Sur 0 -- -- 93
2019-11-18 05:00:00 -1.5 0 Calma 4 Norte 0 -- -- 94
2019-11-18 04:00:00 -0.7 2 Noroeste 7 Sudoeste 0 -- -- 93
2019-11-18 03:00:00 -0.2 0 Calma 5 Sudoeste 0 -- -- 92
2019-11-18 02:00:00 0 2 Sudoeste 5 Norte 0 -- -- 91
2019-11-18 01:00:00 1.1 4 Sudoeste 13 Oeste 0 -- -- 88
2019-11-18 00:00:00 2.1 6 Sudoeste 11 Oeste 0 -- -- 87
2019-11-17 23:00:00 3.2 7 Oeste 14 Oeste 0 -- -- 86
2019-11-17 22:00:00 3 9 Oeste 17 Oeste 0 -- -- 87
2019-11-17 21:00:00 3.5 10 Noroeste 21 Noroeste 0 -- -- 82
2019-11-17 20:00:00 4.6 9 Noroeste 39 Noroeste 0 -- -- 77
2019-11-17 19:00:00 5.8 22 Noroeste 35 Norte 0 -- -- 75
2019-11-17 18:00:00 7.2 20 Noroeste 35 Noroeste 0 -- -- 73
2019-11-17 17:00:00 9 4 Noroeste 16 Noroeste 0.2 -- -- 89
2019-11-17 16:00:00 8.4 13 Noroeste 36 Oeste 2 -- -- 87
2019-11-17 15:00:00 10.1 24 Oeste 39 Oeste 0 -- -- 86
2019-11-17 14:00:00 8.1 20 Oeste 34 Oeste 0 -- -- 93
2019-11-17 13:00:00 7.4 20 Oeste 37 Oeste 0 -- -- 95
2019-11-17 12:00:00 6.4 22 Oeste 40 Oeste 0 -- -- 95
2019-11-17 11:00:00 5.4 15 Oeste 26 Oeste 1 -- -- 95
2019-11-17 10:00:00 4.8 15 Oeste 28 Oeste 0.8 -- -- 95
2019-11-17 09:00:00 4.6 17 Oeste 30 Oeste 0 -- -- 93
2019-11-17 08:00:00 4.5 16 Sudoeste 28 Sudoeste 0 -- -- 92
2019-11-17 07:00:00 4.1 17 Sudoeste 25 Sudoeste 0.4 -- -- 90
2019-11-17 06:00:00 3.9 13 Sudoeste 20 Oeste 0 -- -- 90
2019-11-17 05:00:00 3 10 Oeste 19 Sudoeste 0 -- -- 91
2019-11-17 04:00:00 1.8 11 Oeste 16 Sudoeste 0 -- -- 91
2019-11-17 03:00:00 2.1 8 Sudoeste 15 Sudoeste 0 -- -- 89
2019-11-17 02:00:00 2.7 10 Oeste 17 Oeste 0 -- -- 88
2019-11-17 01:00:00 2.7 10 Sudoeste 19 Oeste 0 -- -- 85
2019-11-17 00:00:00 3.2 10 Oeste 18 Sudoeste 0 -- -- 83
2019-11-16 23:00:00 3.5 11 Oeste 18 Sudoeste 0 -- -- 83
2019-11-16 22:00:00 2.8 8 Oeste 14 Sudoeste 0 -- -- 83
2019-11-16 21:00:00 3.1 9 Oeste 14 Oeste 0 -- -- 79
2019-11-16 20:00:00 4.5 9 Oeste 14 Oeste 0 -- -- 71
2019-11-16 19:00:00 5.5 7 Norte 23 Norte 0 -- -- 64
2019-11-16 18:00:00 5.7 9 Norte 22 Noroeste 0 -- -- 67
2019-11-16 17:00:00 7.7 16 Noroeste 31 Noroeste 0 -- -- 56
2019-11-16 16:00:00 8.1 19 Noroeste 31 Noroeste 0 -- -- 55
2019-11-16 15:00:00 8.2 20 Noroeste 36 Noroeste 0 -- -- 57
2019-11-16 14:00:00 8.1 22 Noroeste 35 Noroeste 0 -- -- 62
2019-11-16 13:00:00 7.2 19 Oeste 32 Oeste 0 -- -- 67
2019-11-16 12:00:00 5.9 17 Oeste 32 Oeste 0 -- -- 73
2019-11-16 11:00:00 3.6 13 Oeste 18 Oeste 0 -- -- 81
2019-11-16 10:00:00 1.2 9 Oeste 15 Oeste 0 -- -- 90
2019-11-16 09:00:00 -1.3 4 Sudoeste 8 Sudoeste 0 -- -- 94
2019-11-16 08:00:00 -2.6 3 Sudoeste 8 Oeste 0 -- -- 92
2019-11-16 07:00:00 -2.1 0 Calma 5 Sudoeste 0 -- -- 91
2019-11-16 06:00:00 -1.3 4 Sur 8 Sudoeste 0 -- -- 90
2019-11-16 05:00:00 -0.4 5 Sur 25 Noroeste 0 -- -- 87
2019-11-16 04:00:00 0.5 13 Noroeste 28 Noroeste 0 -- -- 89
2019-11-16 03:00:00 0.8 3 Oeste 24 Noroeste 0 -- -- 84
2019-11-16 02:00:00 1.4 17 Noroeste 28 Noroeste 0 -- -- 86
2019-11-16 01:00:00 1.7 14 Noroeste 25 Noroeste 0 -- -- 85
2019-11-16 00:00:00 1.6 13 Noroeste 26 Norte 0 -- -- 85
2019-11-15 23:00:00 2.2 13 Noroeste 22 Noroeste 0 -- -- 83
2019-11-15 22:00:00 2.6 14 Noroeste 26 Noroeste 0 -- -- 81
2019-11-15 21:00:00 3.4 14 Noroeste 25 Noroeste 0 -- -- 79
2019-11-15 20:00:00 3.9 12 Noroeste 23 Noroeste 0 -- -- 78
2019-11-15 19:00:00 4.3 18 Noroeste 34 Noroeste 0 -- -- 74
2019-11-15 18:00:00 5.2 18 Noroeste 34 Noroeste 0 -- -- 70
2019-11-15 17:00:00 6.8 24 Noroeste 36 Noroeste 0 -- -- 62
2019-11-15 16:00:00 7.2 22 Noroeste 36 Noroeste 0 -- -- 63
2019-11-15 15:00:00 7.8 25 Noroeste 39 Noroeste 0 -- -- 60
2019-11-15 14:00:00 7.5 24 Noroeste 39 Noroeste 0 -- -- 65
2019-11-15 13:00:00 7.2 28 Noroeste 40 Noroeste 0 -- -- 65
2019-11-15 12:00:00 6 26 Noroeste 44 Noroeste 0 -- -- 71
2019-11-15 11:00:00 5.2 22 Noroeste 35 Noroeste 0 -- -- 79
2019-11-15 10:00:00 3.4 21 Noroeste 31 Noroeste 0 -- -- 83
2019-11-15 09:00:00 1.4 10 Oeste 20 Oeste 0 -- -- 90
2019-11-15 08:00:00 1.9 13 Noroeste 28 Noroeste 0 -- -- 88
2019-11-15 07:00:00 1.8 13 Noroeste 24 Noroeste 0 -- -- 89
2019-11-15 06:00:00 1.8 17 Noroeste 30 Noroeste 0 -- -- 89
2019-11-15 05:00:00 1.8 12 Noroeste 27 Noroeste 0 -- -- 90
2019-11-15 04:00:00 2 16 Noroeste 27 Noroeste 0 -- -- 92
2019-11-15 03:00:00 1.9 10 Noroeste 26 Noroeste 0 -- -- 91
2019-11-15 02:00:00 2 13 Noroeste 27 Noroeste 0 -- -- 92
2019-11-15 01:00:00 2 20 Noroeste 33 Noroeste 0 -- -- 92
2019-11-15 00:00:00 2.1 28 Noroeste 48 Noroeste 0 -- -- 90
2019-11-14 23:00:00 2.9 18 Noroeste 28 Noroeste 0 -- -- 90
2019-11-14 22:00:00 2.8 17 Noroeste 39 Noroeste 0 -- -- 89
2019-11-14 21:00:00 2.6 13 Noroeste 21 Noroeste 0 -- -- 89
2019-11-14 20:00:00 2.6 6 Noroeste 18 Noroeste 0 -- -- 88
2019-11-14 19:00:00 3.5 15 Noroeste 40 Noroeste 0 -- -- 85
2019-11-14 18:00:00 4 21 Noroeste 36 Noroeste 0 -- -- 85
2019-11-14 17:00:00 3.6 26 Noroeste 52 Noroeste 0.8 -- -- 91
2019-11-14 16:00:00 4 26 Oeste 55 Oeste 0.4 -- -- 91
2019-11-14 15:00:00 3.7 30 Oeste 57 Oeste 1 -- -- 91
2019-11-14 14:00:00 6.1 33 Oeste 58 Oeste 0 -- -- 72
2019-11-14 13:00:00 5.7 34 Oeste 59 Oeste 0.2 -- -- 72
2019-11-14 12:00:00 5.6 32 Oeste 44 Oeste 0 -- -- 75
2019-11-14 11:00:00 4.6 27 Oeste 46 Oeste 0 -- -- 81
2019-11-14 10:00:00 3.5 23 Oeste 37 Oeste 0 -- -- 84
2019-11-14 09:00:00 1.9 10 Sudoeste 17 Oeste 0 -- -- 84
2019-11-14 08:00:00 2.2 11 Oeste 36 Noroeste 0 -- -- 80
2019-11-14 07:00:00 4 26 Noroeste 41 Noroeste 0 -- -- 76
2019-11-14 06:00:00 4.4 22 Noroeste 39 Noroeste 0 -- -- 78
2019-11-14 05:00:00 5 28 Noroeste 44 Noroeste 0.4 -- -- 83
2019-11-14 04:00:00 6.8 28 Oeste 46 Oeste 0.6 -- -- 90
2019-11-14 03:00:00 7.3 31 Oeste 46 Oeste 0 -- -- 85
2019-11-14 02:00:00 7.4 29 Oeste 51 Sudoeste 0 -- -- 83
2019-11-14 01:00:00 6.8 26 Oeste 51 Oeste 0 -- -- 83
2019-11-14 00:00:00 6.8 22 Oeste 43 Oeste 0 -- -- 84
2019-11-13 23:00:00 7.1 29 Oeste 42 Oeste 0 -- -- 79
2019-11-13 22:00:00 7.2 19 Oeste 32 Oeste 0 -- -- 82
2019-11-13 21:00:00 7.8 17 Oeste 36 Oeste 0 -- -- 80
2019-11-13 20:00:00 8.9 19 Oeste 35 Oeste 0 -- -- 79
2019-11-13 19:00:00 10 15 Oeste 26 Oeste 0 -- -- 79
2019-11-13 18:00:00 12 15 Oeste 25 Oeste 0 -- -- 74
2019-11-13 17:00:00 13.8 15 Oeste 26 Oeste 0 -- -- 65
2019-11-13 16:00:00 13.6 14 Oeste 25 Oeste 0 -- -- 64
2019-11-13 15:00:00 13.5 13 Oeste 22 Oeste 0 -- -- 62
2019-11-13 14:00:00 13.1 13 Oeste 25 Noroeste 0 -- -- 67
2019-11-13 13:00:00 12.6 9 Oeste 18 Oeste 0 -- -- 69
2019-11-13 12:00:00 11.8 7 Sur 13 Sudeste 0 -- -- 73
2019-11-13 11:00:00 10.5 7 Este 16 Este 0 -- -- 79
2019-11-13 10:00:00 8.8 5 Este 11 Este 0 -- -- 94
2019-11-13 09:00:00 6.6 4 Nordeste 12 Nordeste 0 -- -- 95
2019-11-13 08:00:00 7.2 8 Nordeste 17 Norte 0 -- -- 94
2019-11-13 07:00:00 9.1 12 Norte 23 Noroeste 0 -- -- 94
2019-11-13 06:00:00 9.4 10 Noroeste 22 Oeste 0 -- -- 95
2019-11-13 05:00:00 10.5 14 Oeste 33 Oeste 0 -- -- 95
2019-11-13 04:00:00 10.5 24 Oeste 37 Oeste 0.6 -- -- 95
2019-11-13 03:00:00 10.3 21 Oeste 46 Oeste 1.8 -- -- 95
2019-11-13 02:00:00 9.9 24 Oeste 39 Oeste 1 -- -- 95
2019-11-13 01:00:00 9.5 26 Oeste 57 Oeste 2.2 -- -- 95
2019-11-13 00:00:00 9.1 22 Oeste 41 Sudoeste 0 -- -- 94
2019-11-12 23:00:00 8.6 22 Oeste 39 Oeste 0 -- -- 93
2019-11-12 22:00:00 8.2 24 Oeste 43 Oeste 0.2 -- -- 94
2019-11-12 21:00:00 7.7 25 Oeste 39 Sudoeste 1.2 -- -- 93
2019-11-12 20:00:00 7.6 22 Oeste 37 Oeste 1 -- -- 90
2019-11-12 19:00:00 7.7 21 Oeste 37 Oeste 0.2 -- -- 87
2019-11-12 18:00:00 8.3 21 Oeste 40 Oeste 0 -- -- 81
2019-11-12 17:00:00 9.4 23 Oeste 42 Oeste 0 -- -- 73
2019-11-12 16:00:00 10 18 Oeste 28 Oeste 0 -- -- 68
2019-11-12 15:00:00 10.4 18 Oeste 30 Oeste 0 -- -- 59
2019-11-12 14:00:00 10 16 Oeste 28 Noroeste 0 -- -- 58
2019-11-12 13:00:00 10.1 19 Oeste 31 Noroeste 0 -- -- 60
2019-11-12 12:00:00 9.1 16 Oeste 26 Noroeste 0 -- -- 66
2019-11-12 11:00:00 6.7 12 Oeste 18 Oeste 0 -- -- 78
2019-11-12 10:00:00 4.7 8 Oeste 14 Oeste 0 -- -- 87
2019-11-12 09:00:00 2.5 5 Oeste 10 Sudoeste 0 -- -- 91
2019-11-12 08:00:00 2.5 5 Sudoeste 8 Noroeste 0 -- -- 89
2019-11-12 07:00:00 2.6 7 Oeste 9 Oeste 0 -- -- 89
2019-11-12 06:00:00 2.3 0 Calma 6 Sudoeste 0 -- -- 89
2019-11-12 05:00:00 2.1 3 Sudoeste 6 Noroeste 0 -- -- 89
2019-11-12 04:00:00 1.5 2 Oeste 6 Sur 0 -- -- 91
2019-11-12 03:00:00 0.6 4 Noroeste 6 Noroeste 0 -- -- 89
2019-11-12 02:00:00 0.9 4 Oeste 6 Oeste 0 -- -- 88
2019-11-12 01:00:00 0.5 4 Oeste 9 Oeste 0 -- -- 88
2019-11-12 00:00:00 0.9 0 Calma 9 Sur 0 -- -- 84
2019-11-11 23:00:00 1.6 0 Calma 5 Sudeste 0 -- -- 80
2019-11-11 22:00:00 4 4 Nordeste 11 Este 0 -- -- 74
2019-11-11 21:00:00 5.2 2 Nordeste 17 Este 0 -- -- 72
2019-11-11 20:00:00 6.3 6 Nordeste 15 Nordeste 0 -- -- 70
2019-11-11 19:00:00 7.1 6 Este 12 Nordeste 0 -- -- 66
2019-11-11 18:00:00 9.8 8 Nordeste 28 Norte 0 -- -- 60
2019-11-11 17:00:00 12.1 15 Norte 27 Norte 0 -- -- 53
2019-11-11 16:00:00 12.8 12 Nordeste 31 Norte 0 -- -- 56
2019-11-11 15:00:00 13.9 14 Norte 31 Nordeste 0 -- -- 50
2019-11-11 14:00:00 13.1 15 Norte 27 Norte 0 -- -- 61
2019-11-11 13:00:00 11.7 9 Norte 20 Norte 0 -- -- 78
2019-11-11 12:00:00 9.7 10 Oeste 24 Oeste 0 -- -- 90
2019-11-11 11:00:00 8.3 14 Oeste 24 Oeste 0 -- -- 94
2019-11-11 10:00:00 7.2 13 Oeste 23 Oeste 0 -- -- 94
2019-11-11 09:00:00 6.4 12 Oeste 18 Oeste 0 -- -- 94
2019-11-11 08:00:00 6 11 Oeste 18 Sudoeste 0 -- -- 93
2019-11-11 07:00:00 5.6 9 Oeste 17 Oeste 0 -- -- 93
2019-11-11 06:00:00 5.2 9 Oeste 15 Oeste 0 -- -- 94
2019-11-11 05:00:00 4.8 7 Oeste 13 Oeste 0 -- -- 94
2019-11-11 04:00:00 3.6 2 Oeste 6 Sudoeste 0 -- -- 94
2019-11-11 03:00:00 2.5 4 Oeste 7 Sudoeste 0 -- -- 93
2019-11-11 02:00:00 2 5 Oeste 8 Oeste 0 -- -- 92
2019-11-11 01:00:00 2.4 5 Oeste 8 Sudoeste 0 -- -- 90
2019-11-11 00:00:00 1.8 2 Sur 9 Oeste 0 -- -- 89
2019-11-10 23:00:00 2.7 9 Oeste 13 Sudoeste 0 -- -- 86
2019-11-10 22:00:00 1.6 4 Sudoeste 12 Sur 0 -- -- 87
2019-11-10 21:00:00 3.4 6 Sudoeste 17 Noroeste 0 -- -- 80
2019-11-10 20:00:00 5.3 14 Noroeste 23 Noroeste 0 -- -- 76
2019-11-10 19:00:00 5.5 12 Noroeste 23 Noroeste 0 -- -- 76
2019-11-10 18:00:00 6.1 12 Noroeste 24 Norte 0 -- -- 74
2019-11-10 17:00:00 7 16 Norte 36 Noroeste 0 -- -- 71
2019-11-10 16:00:00 7.5 21 Norte 45 Norte 0 -- -- 68
2019-11-10 15:00:00 7.6 27 Noroeste 41 Noroeste 0 -- -- 69
2019-11-10 14:00:00 8 23 Noroeste 39 Norte 0 -- -- 66
2019-11-10 13:00:00 7.5 27 Norte 39 Noroeste 0 -- -- 68
2019-11-10 12:00:00 6.5 22 Noroeste 38 Noroeste 0 -- -- 79
2019-11-10 11:00:00 4.5 21 Oeste 33 Oeste 0 -- -- 87
2019-11-10 10:00:00 3.7 16 Oeste 27 Oeste 0 -- -- 87
2019-11-10 09:00:00 2.6 17 Oeste 25 Oeste 0 -- -- 87
2019-11-10 08:00:00 2.7 15 Oeste 26 Oeste 0 -- -- 86
2019-11-10 07:00:00 0.8 8 Oeste 14 Oeste 0 -- -- 89
2019-11-10 06:00:00 0.2 6 Oeste 12 Oeste 0 -- -- 89
2019-11-10 05:00:00 0.8 6 Oeste 17 Oeste 0 -- -- 88
2019-11-10 04:00:00 1.5 10 Oeste 18 Oeste 0 -- -- 90
2019-11-10 03:00:00 1 7 Oeste 12 Oeste 0 -- -- 88
2019-11-10 02:00:00 2.7 5 Oeste 12 Noroeste 0 -- -- 86
2019-11-10 01:00:00 3.8 8 Oeste 21 Noroeste 0 -- -- 84
2019-11-10 00:00:00 5.2 16 Noroeste 32 Noroeste 0 -- -- 82
2019-11-09 23:00:00 5.9 19 Noroeste 27 Noroeste 0 -- -- 78
2019-11-09 22:00:00 6.7 16 Noroeste 29 Noroeste 0 -- -- 81
2019-11-09 21:00:00 7 10 Oeste 25 Oeste 0 -- -- 91
2019-11-09 20:00:00 7.4 14 Oeste 27 Oeste 0 -- -- 87
2019-11-09 19:00:00 7.7 10 Oeste 28 Oeste 0 -- -- 89
2019-11-09 18:00:00 8.6 19 Oeste 32 Oeste 0 -- -- 86
2019-11-09 17:00:00 9.6 18 Oeste 35 Oeste 0 -- -- 84
2019-11-09 16:00:00 9.4 18 Oeste 34 Oeste 0 -- -- 84
2019-11-09 15:00:00 9.1 23 Oeste 36 Oeste 0 -- -- 85
2019-11-09 14:00:00 8.4 21 Oeste 39 Oeste 0 -- -- 87
2019-11-09 13:00:00 7.4 25 Oeste 39 Oeste 0 -- -- 89
2019-11-09 12:00:00 6.5 22 Oeste 33 Oeste 0 -- -- 89
2019-11-09 11:00:00 5.9 18 Oeste 33 Oeste 0 -- -- 92
2019-11-09 10:00:00 5 17 Oeste 26 Oeste 0.4 -- -- 92
2019-11-09 09:00:00 4.6 13 Oeste 23 Oeste 0 -- -- 91
2019-11-09 08:00:00 4.1 11 Oeste 19 Oeste 0 -- -- 91
2019-11-09 07:00:00 3.8 9 Sudoeste 15 Sudoeste 0 -- -- 90
2019-11-09 06:00:00 3.7 4 Sudoeste 15 Oeste 0 -- -- 89
2019-11-09 05:00:00 3.9 8 Sudoeste 19 Oeste 0 -- -- 89
2019-11-09 04:00:00 3.6 13 Oeste 21 Oeste 0 -- -- 89
2019-11-09 03:00:00 3.4 9 Oeste 16 Oeste 0 -- -- 85
2019-11-09 02:00:00 2.6 8 Oeste 12 Sudoeste 0 -- -- 88
2019-11-09 01:00:00 2.3 10 Oeste 19 Oeste 0 -- -- 86
2019-11-09 00:00:00 1.5 4 Oeste 14 Oeste 0 -- -- 84
2019-11-08 23:00:00 3.3 9 Oeste 22 Sudoeste 0 -- -- 78
2019-11-08 22:00:00 3.5 5 Oeste 24 Noroeste 0 -- -- 76
2019-11-08 21:00:00 5.3 19 Noroeste 31 Noroeste 0 -- -- 71
2019-11-08 20:00:00 5.6 18 Noroeste 29 Noroeste 0 -- -- 67
2019-11-08 19:00:00 6.4 20 Noroeste 36 Noroeste 0 -- -- 63
2019-11-08 18:00:00 8 26 Noroeste 49 Noroeste 0 -- -- 60
2019-11-08 17:00:00 9.7 27 Noroeste 48 Oeste 0 -- -- 50
2019-11-08 16:00:00 10.4 30 Noroeste 44 Noroeste 0 -- -- 50
2019-11-08 15:00:00 10.6 29 Noroeste 51 Noroeste 0 -- -- 49
2019-11-08 14:00:00 10.2 30 Noroeste 52 Noroeste 0 -- -- 50
2019-11-08 13:00:00 10.1 30 Noroeste 44 Noroeste 0 -- -- 54
2019-11-08 12:00:00 8.1 24 Oeste 42 Noroeste 0 -- -- 68
2019-11-08 11:00:00 6.2 23 Noroeste 37 Oeste 0 -- -- 77
2019-11-08 10:00:00 3.3 15 Oeste 22 Oeste 0 -- -- 93
2019-11-08 09:00:00 1.4 8 Oeste 14 Oeste 0 -- -- 94
2019-11-08 08:00:00 0.4 10 Oeste 17 Oeste 0 -- -- 94
2019-11-08 07:00:00 0.5 9 Oeste 22 Oeste 0 -- -- 93
2019-11-08 06:00:00 0.7 14 Oeste 21 Oeste 0 -- -- 93
2019-11-08 05:00:00 0.7 11 Oeste 26 Oeste 0 -- -- 92
2019-11-08 04:00:00 1.2 17 Oeste 27 Oeste 0 -- -- 93
2019-11-08 03:00:00 1.1 14 Oeste 28 Oeste 0 -- -- 91
2019-11-08 02:00:00 1.2 15 Oeste 26 Oeste 0 -- -- 91
2019-11-08 01:00:00 1.3 12 Oeste 22 Oeste 0 -- -- 91
2019-11-08 00:00:00 1.6 12 Oeste 22 Oeste 0 -- -- 90
2019-11-07 23:00:00 2.2 15 Oeste 28 Oeste 0 -- -- 89
2019-11-07 22:00:00 2.3 17 Oeste 28 Oeste 0 -- -- 88
2019-11-07 21:00:00 2.7 16 Oeste 25 Oeste 0 -- -- 86
2019-11-07 20:00:00 3.1 12 Oeste 19 Oeste 0 -- -- 86
2019-11-07 19:00:00 4.4 10 Oeste 31 Noroeste 0 -- -- 81
2019-11-07 18:00:00 5.7 20 Noroeste 32 Oeste 0.2 -- -- 74
2019-11-07 17:00:00 6.2 19 Oeste 30 Oeste 0 -- -- 78
2019-11-07 16:00:00 7.7 16 Noroeste 31 Noroeste 0 -- -- 70
2019-11-07 15:00:00 6.9 18 Norte 43 Noroeste 0 -- -- 79
2019-11-07 14:00:00 10.1 26 Noroeste 39 Oeste 0 -- -- 50
2019-11-07 13:00:00 10.7 24 Oeste 38 Oeste 0 -- -- 52
2019-11-07 12:00:00 9.3 24 Oeste 36 Noroeste 0 -- -- 60
2019-11-07 11:00:00 8.7 19 Noroeste 30 Noroeste 0 -- -- 71
2019-11-07 10:00:00 7.5 21 Noroeste 31 Noroeste 0 -- -- 75
2019-11-07 09:00:00 6 16 Noroeste 30 Oeste 0 -- -- 81
2019-11-07 08:00:00 5.9 17 Noroeste 30 Noroeste 0 -- -- 79
2019-11-07 07:00:00 6.4 16 Noroeste 28 Noroeste 0 -- -- 79
2019-11-07 06:00:00 7.4 13 Noroeste 24 Noroeste 0 -- -- 79
2019-11-07 05:00:00 8.5 19 Noroeste 30 Noroeste 0 -- -- 81
2019-11-07 04:00:00 9.7 17 Noroeste 28 Noroeste 0 -- -- 92
2019-11-07 03:00:00 10.3 14 Oeste 33 Oeste 0 -- -- 92
2019-11-07 02:00:00 10.3 20 Oeste 34 Oeste 0 -- -- 92
2019-11-07 01:00:00 10.2 21 Oeste 38 Oeste 0 -- -- 91
2019-11-07 00:00:00 10.1 19 Oeste 35 Oeste 0 -- -- 90
2019-11-06 23:00:00 9.9 18 Oeste 33 Oeste 0 -- -- 88
2019-11-06 22:00:00 10 18 Oeste 32 Oeste 0 -- -- 85
2019-11-06 21:00:00 9.9 16 Oeste 28 Oeste 0 -- -- 85
2019-11-06 20:00:00 10 16 Oeste 31 Oeste 0 -- -- 82
2019-11-06 19:00:00 10.3 17 Oeste 35 Oeste 0 -- -- 77
2019-11-06 18:00:00 10.8 21 Oeste 37 Oeste 0 -- -- 73
2019-11-06 17:00:00 11.5 23 Oeste 36 Oeste 0 -- -- 69
2019-11-06 16:00:00 12 20 Oeste 31 Oeste 0 -- -- 66
2019-11-06 15:00:00 12.2 19 Oeste 30 Sudoeste 0 -- -- 64
2019-11-06 14:00:00 11.6 19 Oeste 34 Noroeste 0 -- -- 67
2019-11-06 13:00:00 11.1 16 Oeste 24 Noroeste 0 -- -- 70
2019-11-06 12:00:00 9.6 14 Oeste 23 Oeste 0 -- -- 77
2019-11-06 11:00:00 7.7 9 Oeste 17 Oeste 0 -- -- 85
2019-11-06 10:00:00 6.5 9 Oeste 14 Oeste 0 -- -- 86
2019-11-06 09:00:00 5.2 8 Oeste 14 Oeste 0 -- -- 90
2019-11-06 08:00:00 4.2 6 Oeste 9 Oeste 0 -- -- 92
2019-11-06 07:00:00 3.9 5 Oeste 12 Sudoeste 0 -- -- 93
2019-11-06 06:00:00 3.5 6 Oeste 12 Oeste 0 -- -- 94
2019-11-06 05:00:00 3.1 7 Oeste 13 Noroeste 0 -- -- 94
2019-11-06 04:00:00 2.9 8 Sudoeste 12 Sudoeste 0 -- -- 93
2019-11-06 03:00:00 3.2 4 Oeste 14 Oeste 0 -- -- 92
2019-11-06 02:00:00 4 11 Oeste 22 Oeste 0 -- -- 90
2019-11-06 01:00:00 4.3 5 Oeste 12 Oeste 0 -- -- 85
2019-11-06 00:00:00 4.5 6 Noroeste 18 Noroeste 0 -- -- 84